sensor_id;sensor_type;location;lat;lon;timestamp;pressure;altitude;pressure_sealevel;temperature;humidity
25869;BME280;13688;53.154;18.136;2023-03-20T00:05:26;100898.09;;;4.74;87.39
25869;BME280;13688;53.154;18.136;2023-03-20T00:10:50;100891.02;;;4.90;87.75
25869;BME280;13688;53.154;18.136;2023-03-20T00:16:12;100888.05;;;4.96;87.74
25869;BME280;13688;53.154;18.136;2023-03-20T00:21:36;100888.73;;;5.00;87.46
25869;BME280;13688;53.154;18.136;2023-03-20T00:26:59;100877.00;;;5.04;87.14
25869;BME280;13688;53.154;18.136;2023-03-20T00:32:21;100870.63;;;5.06;86.82
25869;BME280;13688;53.154;18.136;2023-03-20T00:37:44;100869.69;;;5.07;86.57
25869;BME280;13688;53.154;18.136;2023-03-20T00:43:08;100861.52;;;5.10;86.32
25869;BME280;13688;53.154;18.136;2023-03-20T00:48:32;100858.63;;;5.15;86.09
25869;BME280;13688;53.154;18.136;2023-03-20T00:53:56;100857.05;;;5.11;85.75
25869;BME280;13688;53.154;18.136;2023-03-20T00:59:31;100849.77;;;5.14;85.58
25869;BME280;13688;53.154;18.136;2023-03-20T01:04:56;100847.59;;;5.05;85.35
25869;BME280;13688;53.154;18.136;2023-03-20T01:10:18;100841.32;;;5.06;85.38
25869;BME280;13688;53.154;18.136;2023-03-20T01:15:43;100839.25;;;5.11;85.31
25869;BME280;13688;53.154;18.136;2023-03-20T01:21:07;100837.91;;;5.20;85.15
25869;BME280;13688;53.154;18.136;2023-03-20T01:26:35;100833.39;;;5.38;84.76
25869;BME280;13688;53.154;18.136;2023-03-20T01:32:00;100831.58;;;5.23;83.95
25869;BME280;13688;53.154;18.136;2023-03-20T01:37:31;100838.53;;;5.25;83.83
25869;BME280;13688;53.154;18.136;2023-03-20T01:42:53;100834.92;;;5.26;83.78
25869;BME280;13688;53.154;18.136;2023-03-20T01:48:17;100829.78;;;5.39;83.62
25869;BME280;13688;53.154;18.136;2023-03-20T01:53:41;100829.72;;;5.56;82.80
25869;BME280;13688;53.154;18.136;2023-03-20T01:59:19;100829.54;;;5.59;81.68
25869;BME280;13688;53.154;18.136;2023-03-20T02:04:45;100820.11;;;5.69;80.93
25869;BME280;13688;53.154;18.136;2023-03-20T02:10:12;100826.65;;;5.80;80.13
25869;BME280;13688;53.154;18.136;2023-03-20T02:15:50;100814.75;;;5.85;79.58
25869;BME280;13688;53.154;18.136;2023-03-20T02:27:24;100815.52;;;5.87;79.01
25869;BME280;13688;53.154;18.136;2023-03-20T02:45:43;100815.45;;;6.05;77.63
25869;BME280;13688;53.154;18.136;2023-03-20T03:01:42;100806.05;;;5.34;78.94
25869;BME280;13688;53.154;18.136;2023-03-20T03:07:01;100808.67;;;5.18;80.17
25869;BME280;13688;53.154;18.136;2023-03-20T03:12:32;100813.23;;;5.16;81.18
25869;BME280;13688;53.154;18.136;2023-03-20T03:17:57;100802.89;;;5.10;81.71
25869;BME280;13688;53.154;18.136;2023-03-20T03:23:30;100804.61;;;5.11;82.05
25869;BME280;13688;53.154;18.136;2023-03-20T03:29:06;100805.69;;;5.25;82.17
25869;BME280;13688;53.154;18.136;2023-03-20T03:34:31;100813.95;;;5.36;81.74
25869;BME280;13688;53.154;18.136;2023-03-20T03:40:07;100804.69;;;5.43;81.11
25869;BME280;13688;53.154;18.136;2023-03-20T03:45:43;100804.59;;;5.44;80.66
25869;BME280;13688;53.154;18.136;2023-03-20T03:51:23;100798.64;;;5.39;80.38
25869;BME280;13688;53.154;18.136;2023-03-20T03:56:45;100799.23;;;5.29;80.40
25869;BME280;13688;53.154;18.136;2023-03-20T04:02:10;100791.28;;;5.11;80.76
25869;BME280;13688;53.154;18.136;2023-03-20T04:07:34;100788.42;;;4.99;81.37
25869;BME280;13688;53.154;18.136;2023-03-20T04:12:58;100787.37;;;4.85;82.14
25869;BME280;13688;53.154;18.136;2023-03-20T04:18:21;100786.82;;;4.79;82.94
25869;BME280;13688;53.154;18.136;2023-03-20T04:23:44;100783.55;;;4.74;83.54
25869;BME280;13688;53.154;18.136;2023-03-20T04:29:06;100784.16;;;4.79;84.06
25869;BME280;13688;53.154;18.136;2023-03-20T04:34:28;100789.55;;;4.95;84.34
25869;BME280;13688;53.154;18.136;2023-03-20T04:39:51;100778.98;;;5.09;84.05
25869;BME280;13688;53.154;18.136;2023-03-20T04:45:14;100777.99;;;5.27;83.54
25869;BME280;13688;53.154;18.136;2023-03-20T04:50:37;100774.64;;;5.39;82.81
25869;BME280;13688;53.154;18.136;2023-03-20T04:55:59;100784.80;;;5.49;82.19
25869;BME280;13688;53.154;18.136;2023-03-20T05:01:22;100780.09;;;5.54;81.69
25869;BME280;13688;53.154;18.136;2023-03-20T05:06:45;100784.14;;;5.61;81.39
25869;BME280;13688;53.154;18.136;2023-03-20T05:12:07;100792.48;;;5.70;81.16
25869;BME280;13688;53.154;18.136;2023-03-20T05:17:31;100794.97;;;5.73;80.81
25869;BME280;13688;53.154;18.136;2023-03-20T05:22:55;100801.25;;;5.72;80.58
25869;BME280;13688;53.154;18.136;2023-03-20T05:28:18;100795.92;;;5.72;80.54
25869;BME280;13688;53.154;18.136;2023-03-20T05:33:40;100801.09;;;5.60;81.43
25869;BME280;13688;53.154;18.136;2023-03-20T05:39:03;100804.50;;;5.46;83.45
25869;BME280;13688;53.154;18.136;2023-03-20T05:44:25;100802.79;;;5.45;85.54
25869;BME280;13688;53.154;18.136;2023-03-20T05:49:48;100813.95;;;5.36;87.29
25869;BME280;13688;53.154;18.136;2023-03-20T05:55:10;100821.31;;;5.15;88.59
25869;BME280;13688;53.154;18.136;2023-03-20T06:00:33;100808.02;;;4.98;90.17
25869;BME280;13688;53.154;18.136;2023-03-20T06:05:55;100805.27;;;4.99;92.25
25869;BME280;13688;53.154;18.136;2023-03-20T06:11:18;100812.28;;;5.17;94.62
25869;BME280;13688;53.154;18.136;2023-03-20T06:16:43;100815.67;;;5.21;96.78
25869;BME280;13688;53.154;18.136;2023-03-20T06:22:06;100818.16;;;5.24;98.41
25869;BME280;13688;53.154;18.136;2023-03-20T06:27:29;100821.69;;;5.25;99.66
25869;BME280;13688;53.154;18.136;2023-03-20T06:32:51;100820.33;;;5.33;100.00
25869;BME280;13688;53.154;18.136;2023-03-20T06:38:14;100827.56;;;5.47;100.00
25869;BME280;13688;53.154;18.136;2023-03-20T06:43:36;100834.61;;;5.48;100.00
25869;BME280;13688;53.154;18.136;2023-03-20T06:48:59;100838.67;;;5.55;100.00
25869;BME280;13688;53.154;18.136;2023-03-20T06:54:21;100846.17;;;5.64;100.00
25869;BME280;13688;53.154;18.136;2023-03-20T06:59:43;100838.24;;;5.79;100.00
25869;BME280;13688;53.154;18.136;2023-03-20T07:05:07;100848.95;;;5.94;100.00
25869;BME280;13688;53.154;18.136;2023-03-20T07:10:29;100838.28;;;6.10;100.00
25869;BME280;13688;53.154;18.136;2023-03-20T07:15:52;100840.56;;;6.32;100.00
25869;BME280;13688;53.154;18.136;2023-03-20T07:21:19;100847.50;;;6.50;100.00
25869;BME280;13688;53.154;18.136;2023-03-20T07:26:42;100854.56;;;6.51;100.00
25869;BME280;13688;53.154;18.136;2023-03-20T07:32:05;100863.19;;;6.56;100.00
25869;BME280;13688;53.154;18.136;2023-03-20T07:37:28;100863.34;;;6.53;100.00
25869;BME280;13688;53.154;18.136;2023-03-20T07:42:51;100867.48;;;6.59;100.00
25869;BME280;13688;53.154;18.136;2023-03-20T07:48:13;100868.15;;;6.63;100.00
25869;BME280;13688;53.154;18.136;2023-03-20T07:53:35;100866.55;;;6.74;100.00
25869;BME280;13688;53.154;18.136;2023-03-20T07:58:58;100857.03;;;6.84;100.00
25869;BME280;13688;53.154;18.136;2023-03-20T08:04:20;100860.02;;;6.94;100.00
25869;BME280;13688;53.154;18.136;2023-03-20T08:09:43;100855.92;;;7.03;100.00
25869;BME280;13688;53.154;18.136;2023-03-20T08:15:06;100857.77;;;7.16;100.00
25869;BME280;13688;53.154;18.136;2023-03-20T08:20:28;100847.17;;;7.29;100.00
25869;BME280;13688;53.154;18.136;2023-03-20T08:25:54;100843.45;;;7.46;100.00
25869;BME280;13688;53.154;18.136;2023-03-20T08:31:17;100837.80;;;7.65;100.00
25869;BME280;13688;53.154;18.136;2023-03-20T08:36:40;100836.41;;;7.86;100.00
25869;BME280;13688;53.154;18.136;2023-03-20T08:42:03;100836.57;;;7.97;100.00
25869;BME280;13688;53.154;18.136;2023-03-20T08:47:27;100834.91;;;8.09;100.00
25869;BME280;13688;53.154;18.136;2023-03-20T08:52:50;100844.83;;;8.48;100.00
25869;BME280;13688;53.154;18.136;2023-03-20T08:58:13;100847.52;;;8.88;100.00
25869;BME280;13688;53.154;18.136;2023-03-20T09:03:35;100838.61;;;9.13;100.00
25869;BME280;13688;53.154;18.136;2023-03-20T09:08:59;100845.75;;;9.63;100.00
25869;BME280;13688;53.154;18.136;2023-03-20T09:14:24;100842.21;;;9.63;100.00
25869;BME280;13688;53.154;18.136;2023-03-20T09:19:47;100830.03;;;9.83;100.00
25869;BME280;13688;53.154;18.136;2023-03-20T09:25:11;100818.50;;;9.93;100.00
25869;BME280;13688;53.154;18.136;2023-03-20T09:30:34;100815.98;;;9.79;100.00
25869;BME280;13688;53.154;18.136;2023-03-20T09:35:57;100829.95;;;9.71;100.00
25869;BME280;13688;53.154;18.136;2023-03-20T09:41:27;100829.53;;;9.65;99.65
25869;BME280;13688;53.154;18.136;2023-03-20T09:47:08;100838.48;;;9.65;99.65
25869;BME280;13688;53.154;18.136;2023-03-20T09:57:58;100842.59;;;9.82;100.00
25869;BME280;13688;53.154;18.136;2023-03-20T10:03:38;100845.59;;;9.90;100.00
25869;BME280;13688;53.154;18.136;2023-03-20T10:09:15;100855.29;;;10.17;100.00
25869;BME280;13688;53.154;18.136;2023-03-20T10:20:40;100846.06;;;10.45;97.19
25869;BME280;13688;53.154;18.136;2023-03-20T10:26:20;100837.06;;;10.57;95.70
25869;BME280;13688;53.154;18.136;2023-03-20T10:37:29;100829.77;;;10.70;90.65
25869;BME280;13688;53.154;18.136;2023-03-20T10:43:00;100832.17;;;10.97;89.36
25869;BME280;13688;53.154;18.136;2023-03-20T10:48:44;100836.38;;;11.12;87.04
25869;BME280;13688;53.154;18.136;2023-03-20T10:54:06;100836.50;;;11.11;85.46
25869;BME280;13688;53.154;18.136;2023-03-20T10:59:46;100829.41;;;11.32;84.35
25869;BME280;13688;53.154;18.136;2023-03-20T11:05:10;100827.70;;;11.42;83.53
25869;BME280;13688;53.154;18.136;2023-03-20T11:10:43;100826.46;;;11.58;82.89
25869;BME280;13688;53.154;18.136;2023-03-20T11:16:24;100820.36;;;11.89;81.92
25869;BME280;13688;53.154;18.136;2023-03-20T11:21:56;100818.17;;;12.58;80.13
25869;BME280;13688;53.154;18.136;2023-03-20T11:27:34;100813.19;;;12.96;76.05
25869;BME280;13688;53.154;18.136;2023-03-20T11:32:58;100817.59;;;12.55;74.32
25869;BME280;13688;53.154;18.136;2023-03-20T11:38:27;100811.66;;;12.61;74.82
25869;BME280;13688;53.154;18.136;2023-03-20T11:43:51;100813.27;;;12.84;73.65
25869;BME280;13688;53.154;18.136;2023-03-20T11:49:22;100805.92;;;13.17;73.95
25869;BME280;13688;53.154;18.136;2023-03-20T11:54:58;100802.62;;;13.65;71.24
25869;BME280;13688;53.154;18.136;2023-03-20T12:00:20;100798.69;;;13.88;69.83
25869;BME280;13688;53.154;18.136;2023-03-20T12:05:51;100807.19;;;13.34;69.81
25869;BME280;13688;53.154;18.136;2023-03-20T12:11:36;100804.83;;;13.20;70.71
25869;BME280;13688;53.154;18.136;2023-03-20T12:35:02;100784.56;;;13.65;67.78
25869;BME280;13688;53.154;18.136;2023-03-20T12:40:38;100782.21;;;13.41;67.61
25869;BME280;13688;53.154;18.136;2023-03-20T12:46:07;100775.81;;;13.42;67.42
25869;BME280;13688;53.154;18.136;2023-03-20T12:52:00;100779.19;;;13.35;65.89
25869;BME280;13688;53.154;18.136;2023-03-20T12:57:46;100779.19;;;13.35;64.22
25869;BME280;13688;53.154;18.136;2023-03-20T13:09:30;100760.86;;;13.38;64.46
25869;BME280;13688;53.154;18.136;2023-03-20T13:21:03;100750.52;;;13.43;65.25
25869;BME280;13688;53.154;18.136;2023-03-20T13:26:44;100750.55;;;13.53;65.38
25869;BME280;13688;53.154;18.136;2023-03-20T13:32:23;100747.19;;;13.70;64.94
25869;BME280;13688;53.154;18.136;2023-03-20T13:38:27;100737.63;;;13.66;64.63
25869;BME280;13688;53.154;18.136;2023-03-20T13:43:40;100738.83;;;14.02;63.95
25869;BME280;13688;53.154;18.136;2023-03-20T13:49:32;100710.36;;;14.18;62.38
25869;BME280;13688;53.154;18.136;2023-03-20T13:55:13;100723.45;;;13.93;61.80
25869;BME280;13688;53.154;18.136;2023-03-20T14:00:50;100722.34;;;13.36;61.99
25869;BME280;13688;53.154;18.136;2023-03-20T14:06:42;100723.22;;;13.46;62.67
25869;BME280;13688;53.154;18.136;2023-03-20T14:12:12;100708.31;;;13.52;61.84
25869;BME280;13688;53.154;18.136;2023-03-20T14:17:37;100704.28;;;13.37;62.25
25869;BME280;13688;53.154;18.136;2023-03-20T14:23:01;100696.69;;;13.61;62.22
25869;BME280;13688;53.154;18.136;2023-03-20T14:28:40;100691.02;;;13.93;61.48
25869;BME280;13688;53.154;18.136;2023-03-20T14:33:57;100691.56;;;13.78;62.27
25869;BME280;13688;53.154;18.136;2023-03-20T14:39:42;100689.14;;;13.65;62.70
25869;BME280;13688;53.154;18.136;2023-03-20T14:51:36;100682.08;;;13.24;62.70
25869;BME280;13688;53.154;18.136;2023-03-20T14:57:08;100697.33;;;13.04;62.64
25869;BME280;13688;53.154;18.136;2023-03-20T15:02:34;100708.59;;;12.88;63.21
25869;BME280;13688;53.154;18.136;2023-03-20T15:08:02;100710.11;;;13.11;64.20
25869;BME280;13688;53.154;18.136;2023-03-20T15:13:23;100719.67;;;12.85;65.40
25869;BME280;13688;53.154;18.136;2023-03-20T15:18:51;100722.13;;;12.46;67.53
25869;BME280;13688;53.154;18.136;2023-03-20T15:24:22;100743.66;;;12.25;68.13
25869;BME280;13688;53.154;18.136;2023-03-20T15:29:48;100731.36;;;11.80;68.39
25869;BME280;13688;53.154;18.136;2023-03-20T15:35:16;100737.39;;;11.50;69.60
25869;BME280;13688;53.154;18.136;2023-03-20T15:40:43;100739.48;;;11.24;70.98
25869;BME280;13688;53.154;18.136;2023-03-20T15:46:08;100741.67;;;10.96;72.24
25869;BME280;13688;53.154;18.136;2023-03-20T15:51:31;100758.36;;;10.55;73.21
25869;BME280;13688;53.154;18.136;2023-03-20T15:56:57;100782.45;;;10.32;74.54
25869;BME280;13688;53.154;18.136;2023-03-20T16:02:20;100799.43;;;10.09;75.09
25869;BME280;13688;53.154;18.136;2023-03-20T16:07:43;100784.84;;;9.77;72.99
25869;BME280;13688;53.154;18.136;2023-03-20T16:13:09;100785.64;;;9.66;72.55
25869;BME280;13688;53.154;18.136;2023-03-20T16:18:35;100797.13;;;9.55;72.67
25869;BME280;13688;53.154;18.136;2023-03-20T16:24:03;100779.77;;;9.48;73.01
25869;BME280;13688;53.154;18.136;2023-03-20T16:29:26;100791.56;;;9.45;73.56
25869;BME280;13688;53.154;18.136;2023-03-20T16:34:51;100791.16;;;9.39;74.06
25869;BME280;13688;53.154;18.136;2023-03-20T16:40:30;100790.85;;;9.31;74.45
25869;BME280;13688;53.154;18.136;2023-03-20T16:46:02;100794.62;;;9.28;74.75
25869;BME280;13688;53.154;18.136;2023-03-20T16:51:29;100806.63;;;9.23;75.08
25869;BME280;13688;53.154;18.136;2023-03-20T16:56:53;100804.06;;;9.21;75.20
25869;BME280;13688;53.154;18.136;2023-03-20T17:02:23;100806.11;;;9.17;75.41
25869;BME280;13688;53.154;18.136;2023-03-20T17:08:03;100806.41;;;9.26;75.31
25869;BME280;13688;53.154;18.136;2023-03-20T17:13:27;100810.81;;;9.14;75.84
25869;BME280;13688;53.154;18.136;2023-03-20T17:18:57;100820.06;;;9.10;76.17
25869;BME280;13688;53.154;18.136;2023-03-20T17:24:20;100818.53;;;9.06;76.54
25869;BME280;13688;53.154;18.136;2023-03-20T17:29:43;100813.63;;;9.00;76.96
25869;BME280;13688;53.154;18.136;2023-03-20T17:35:07;100819.40;;;8.94;77.29
25869;BME280;13688;53.154;18.136;2023-03-20T17:40:30;100822.83;;;8.83;77.88
25869;BME280;13688;53.154;18.136;2023-03-20T17:45:52;100818.09;;;8.74;78.50
25869;BME280;13688;53.154;18.136;2023-03-20T17:51:16;100827.21;;;8.71;79.12
25869;BME280;13688;53.154;18.136;2023-03-20T17:56:38;100826.76;;;8.65;79.70
25869;BME280;13688;53.154;18.136;2023-03-20T18:02:00;100828.05;;;8.59;80.29
25869;BME280;13688;53.154;18.136;2023-03-20T18:07:24;100822.88;;;8.56;80.75
25869;BME280;13688;53.154;18.136;2023-03-20T18:12:47;100818.48;;;8.55;81.05
25869;BME280;13688;53.154;18.136;2023-03-20T18:18:09;100821.49;;;8.50;81.28
25869;BME280;13688;53.154;18.136;2023-03-20T18:23:32;100823.09;;;8.53;81.52
25869;BME280;13688;53.154;18.136;2023-03-20T18:28:57;100823.95;;;8.53;81.58
25869;BME280;13688;53.154;18.136;2023-03-20T18:34:19;100821.27;;;8.53;81.46
25869;BME280;13688;53.154;18.136;2023-03-20T18:39:42;100823.84;;;8.55;81.36
25869;BME280;13688;53.154;18.136;2023-03-20T18:45:06;100820.31;;;8.54;81.20
25869;BME280;13688;53.154;18.136;2023-03-20T18:50:36;100818.48;;;8.55;81.19
25869;BME280;13688;53.154;18.136;2023-03-20T18:56:01;100809.70;;;8.53;81.23
25869;BME280;13688;53.154;18.136;2023-03-20T19:01:28;100822.34;;;8.51;81.36
25869;BME280;13688;53.154;18.136;2023-03-20T19:06:50;100817.09;;;8.49;81.67
25869;BME280;13688;53.154;18.136;2023-03-20T19:12:13;100821.49;;;8.50;81.93
25869;BME280;13688;53.154;18.136;2023-03-20T19:17:35;100819.10;;;8.46;82.07
25869;BME280;13688;53.154;18.136;2023-03-20T19:23:02;100819.43;;;8.41;82.36
25869;BME280;13688;53.154;18.136;2023-03-20T19:28:26;100822.11;;;8.41;82.65
25869;BME280;13688;53.154;18.136;2023-03-20T19:33:50;100825.19;;;8.35;82.92
25869;BME280;13688;53.154;18.136;2023-03-20T19:39:16;100822.41;;;8.37;83.25
25869;BME280;13688;53.154;18.136;2023-03-20T19:44:38;100827.08;;;8.33;83.45
25869;BME280;13688;53.154;18.136;2023-03-20T19:50:01;100827.08;;;8.33;83.72
25869;BME280;13688;53.154;18.136;2023-03-20T19:55:25;100830.73;;;8.32;84.00
25869;BME280;13688;53.154;18.136;2023-03-20T20:00:48;100828.91;;;8.32;84.28
25869;BME280;13688;53.154;18.136;2023-03-20T20:06:14;100828.80;;;8.34;84.51
25869;BME280;13688;53.154;18.136;2023-03-20T20:11:38;100827.19;;;8.31;84.37
25869;BME280;13688;53.154;18.136;2023-03-20T20:17:00;100832.09;;;8.25;83.96
25869;BME280;13688;53.154;18.136;2023-03-20T20:22:22;100831.84;;;8.15;83.86
25869;BME280;13688;53.154;18.136;2023-03-20T20:27:45;100834.00;;;7.96;84.42
25869;BME280;13688;53.154;18.136;2023-03-20T20:33:08;100838.17;;;7.73;85.90
25869;BME280;13688;53.154;18.136;2023-03-20T20:38:33;100839.44;;;7.53;88.08
25869;BME280;13688;53.154;18.136;2023-03-20T20:43:57;100838.58;;;7.38;90.40
25869;BME280;13688;53.154;18.136;2023-03-20T20:49:21;100845.72;;;7.24;92.64
25869;BME280;13688;53.154;18.136;2023-03-20T20:54:44;100845.16;;;7.18;94.79
25869;BME280;13688;53.154;18.136;2023-03-20T21:00:09;100842.09;;;7.10;96.92
25869;BME280;13688;53.154;18.136;2023-03-20T21:05:35;100839.78;;;7.04;98.81
25869;BME280;13688;53.154;18.136;2023-03-20T21:10:57;100849.92;;;6.99;100.00
25869;BME280;13688;53.154;18.136;2023-03-20T21:16:20;100844.17;;;6.91;100.00
25869;BME280;13688;53.154;18.136;2023-03-20T21:21:42;100848.85;;;6.87;100.00
25869;BME280;13688;53.154;18.136;2023-03-20T21:27:05;100844.72;;;6.82;100.00
25869;BME280;13688;53.154;18.136;2023-03-20T21:32:29;100844.82;;;6.80;100.00
25869;BME280;13688;53.154;18.136;2023-03-20T21:37:51;100845.17;;;6.74;100.00
25869;BME280;13688;53.154;18.136;2023-03-20T21:43:16;100853.48;;;6.70;100.00
25869;BME280;13688;53.154;18.136;2023-03-20T21:48:39;100861.59;;;6.68;100.00
25869;BME280;13688;53.154;18.136;2023-03-20T21:54:03;100867.95;;;6.66;100.00
25869;BME280;13688;53.154;18.136;2023-03-20T21:59:30;100863.34;;;6.53;100.00
25869;BME280;13688;53.154;18.136;2023-03-20T22:04:54;100865.69;;;6.44;100.00
25869;BME280;13688;53.154;18.136;2023-03-20T22:10:18;100865.97;;;6.39;100.00
25869;BME280;13688;53.154;18.136;2023-03-20T22:15:44;100870.80;;;6.33;100.00
25869;BME280;13688;53.154;18.136;2023-03-20T22:21:08;100866.66;;;6.27;100.00
25869;BME280;13688;53.154;18.136;2023-03-20T22:26:32;100860.65;;;6.23;100.00
25869;BME280;13688;53.154;18.136;2023-03-20T22:31:57;100859.02;;;6.21;100.00
25869;BME280;13688;53.154;18.136;2023-03-20T22:37:21;100863.66;;;6.17;100.00
25869;BME280;13688;53.154;18.136;2023-03-20T22:42:45;100854.11;;;6.13;100.00
25869;BME280;13688;53.154;18.136;2023-03-20T22:48:09;100862.98;;;6.14;100.00
25869;BME280;13688;53.154;18.136;2023-03-20T22:53:35;100860.31;;;6.14;100.00
25869;BME280;13688;53.154;18.136;2023-03-20T22:58:59;100860.31;;;6.14;100.00
25869;BME280;13688;53.154;18.136;2023-03-20T23:04:21;100859.55;;;6.12;100.00
25869;BME280;13688;53.154;18.136;2023-03-20T23:09:47;100861.94;;;6.16;100.00
25869;BME280;13688;53.154;18.136;2023-03-20T23:15:10;100855.40;;;6.22;100.00
25869;BME280;13688;53.154;18.136;2023-03-20T23:20:32;100838.33;;;6.24;100.00
25869;BME280;13688;53.154;18.136;2023-03-20T23:26:02;100837.48;;;6.24;100.00
25869;BME280;13688;53.154;18.136;2023-03-20T23:31:28;100837.76;;;6.19;100.00
25869;BME280;13688;53.154;18.136;2023-03-20T23:36:50;100840.58;;;6.16;100.00
25869;BME280;13688;53.154;18.136;2023-03-20T23:42:13;100842.39;;;6.16;100.00
25869;BME280;13688;53.154;18.136;2023-03-20T23:47:37;100846.02;;;6.15;100.00
25869;BME280;13688;53.154;18.136;2023-03-20T23:52:59;100839.81;;;6.14;100.00
25869;BME280;13688;53.154;18.136;2023-03-20T23:58:25;100842.48;;;6.14;100.00
